Time;durP1;ratioP1;P1;durP2;ratioP2;P2;SDS_P1;SDS_P2;PMS_P1;PMS_P2;Temp;Humidity;BMP_temperature;BMP_pressure;BME280_temperature;BME280_humidity;BME280_pressure;Samples;Min_cycle;Max_cycle;Signal;HPM_P1;HPM_P2
2022/02/08 00:00:01;;;;;;;4.28;1.70;;;10.10;82.10;;;;;;4991911;28;20048;-62
2022/02/08 00:02:35;;;;;;;3.85;1.10;;;10.10;82.20;;;;;;4989468;28;20038;-62
2022/02/08 00:05:08;;;;;;;7.35;1.70;;;10.10;81.20;;;;;;5007728;28;20165;-61
2022/02/08 00:07:36;;;;;;;8.55;1.65;;;10.20;81.80;;;;;;4998924;28;20045;-62
2022/02/08 00:10:04;;;;;;;2.90;1.63;;;10.30;82.60;;;;;;4999315;28;20074;-61
2022/02/08 00:12:32;;;;;;;3.55;1.50;;;10.20;82.60;;;;;;4993511;28;20042;-62
2022/02/08 00:15:00;;;;;;;5.13;1.38;;;10.20;80.80;;;;;;4982602;28;20434;-61
2022/02/08 00:17:27;;;;;;;2.42;0.93;;;10.10;79.30;;;;;;4997970;28;20039;-61
2022/02/08 00:19:55;;;;;;;3.70;1.65;;;10.10;78.40;;;;;;5001264;28;20062;-61
2022/02/08 00:22:22;;;;;;;1.45;1.00;;;10.00;78.80;;;;;;5003456;28;20384;-61
2022/02/08 00:24:50;;;;;;;4.82;2.15;;;10.00;79.50;;;;;;4992850;28;20053;-62
2022/02/08 00:27:17;;;;;;;2.60;1.50;;;10.00;80.00;;;;;;4997251;28;20481;-62
2022/02/08 00:29:45;;;;;;;2.90;1.75;;;9.90;79.60;;;;;;4999807;28;20030;-61
2022/02/08 00:32:13;;;;;;;2.75;1.20;;;10.00;80.00;;;;;;5000285;28;20140;-61
2022/02/08 00:34:40;;;;;;;4.93;2.00;;;9.90;79.70;;;;;;4999546;28;20056;-61
2022/02/08 00:37:08;;;;;;;2.55;1.23;;;9.90;80.40;;;;;;4992585;28;20054;-62
2022/02/08 00:39:36;;;;;;;2.03;1.10;;;9.80;80.30;;;;;;4992373;28;20039;-62
2022/02/08 00:42:09;;;;;;;3.95;1.67;;;9.80;80.30;;;;;;4993781;28;20433;-62
2022/02/08 00:44:43;;;;;;;3.85;1.55;;;9.80;80.50;;;;;;4993660;28;20397;-62
2022/02/08 00:47:57;;;;;;;6.30;2.13;;;9.80;81.20;;;;;;4993856;28;20047;-62
2022/02/08 00:50:07;;;;;;;5.70;1.98;;;9.80;82.10;;;;;;4987440;28;20054;-62
2022/02/08 00:52:37;;;;;;;11.95;2.30;;;9.80;82.70;;;;;;4992611;28;20043;-62
2022/02/08 00:55:09;;;;;;;3.22;1.85;;;9.80;83.80;;;;;;4994078;28;20144;-62
2022/02/08 00:57:39;;;;;;;3.45;1.63;;;9.90;84.00;;;;;;4978216;28;20444;-62
2022/02/08 01:00:10;;;;;;;4.88;2.33;;;9.90;83.00;;;;;;4997358;28;20039;-62
2022/02/08 01:02:38;;;;;;;4.13;1.40;;;9.90;82.80;;;;;;4996075;28;20042;-62
2022/02/08 01:05:09;;;;;;;4.60;1.23;;;9.90;83.00;;;;;;4979987;28;20054;-62
2022/02/08 01:07:36;;;;;;;3.78;1.85;;;9.90;82.80;;;;;;4963893;28;20433;-62
2022/02/08 01:10:05;;;;;;;6.15;2.83;;;9.90;82.90;;;;;;4997185;28;20046;-62
2022/02/08 01:12:34;;;;;;;4.80;1.50;;;9.90;82.60;;;;;;4997019;28;20097;-62
2022/02/08 01:15:05;;;;;;;6.13;1.98;;;9.90;81.60;;;;;;4995958;28;20046;-62
2022/02/08 01:17:33;;;;;;;5.28;2.95;;;9.90;82.20;;;;;;4996156;28;20070;-62
2022/02/08 01:20:16;;;;;;;4.95;2.00;;;9.90;82.90;;;;;;4996891;28;20077;-62
2022/02/08 01:22:45;;;;;;;4.30;1.55;;;9.80;83.40;;;;;;4995872;28;20046;-62
2022/02/08 01:25:26;;;;;;;4.47;2.40;;;9.90;82.70;;;;;;4995968;28;20056;-62
2022/02/08 01:27:57;;;;;;;3.88;2.08;;;9.90;82.30;;;;;;4995594;28;20053;-62
2022/02/08 01:30:31;;;;;;;4.60;1.55;;;9.90;81.90;;;;;;4997007;28;20189;-62
2022/02/08 01:38:17;;;;;;;3.33;1.33;;;9.90;82.20;;;;;;4995769;28;20509;-62
2022/02/08 01:48:59;;;;;;;3.95;1.40;;;9.70;83.40;;;;;;4978916;28;20058;-61
2022/02/08 01:51:26;;;;;;;4.40;1.70;;;9.70;83.70;;;;;;4995252;28;20062;-62
2022/02/08 01:53:54;;;;;;;6.35;2.15;;;9.70;83.30;;;;;;4995338;28;20121;-62
2022/02/08 01:56:22;;;;;;;3.30;1.35;;;9.70;82.50;;;;;;4995566;28;20544;-62
2022/02/08 01:58:50;;;;;;;2.88;1.92;;;9.70;82.30;;;;;;4978739;28;20132;-62
2022/02/08 02:01:29;;;;;;;1.92;1.20;;;9.60;82.10;;;;;;4995185;28;20493;-62
2022/02/08 02:03:56;;;;;;;5.00;2.35;;;9.70;82.00;;;;;;4996076;28;20105;-62
2022/02/08 02:06:39;;;;;;;3.10;1.30;;;9.60;81.60;;;;;;4994917;28;20432;-62
2022/02/08 02:09:08;;;;;;;3.80;1.45;;;9.60;82.30;;;;;;4994601;28;20042;-62
2022/02/08 02:11:36;;;;;;;4.88;1.73;;;9.60;82.10;;;;;;4979103;28;20046;-62
2022/02/08 02:14:04;;;;;;;2.40;1.23;;;9.60;81.90;;;;;;4995966;28;20124;-62
2022/02/08 02:19:05;;;;;;;2.47;1.25;;;9.60;81.30;;;;;;4994885;28;20122;-62
2022/02/08 02:21:36;;;;;;;3.47;1.52;;;9.60;82.20;;;;;;4995092;28;20378;-62
2022/02/08 02:24:04;;;;;;;2.72;1.52;;;9.60;82.90;;;;;;4995834;28;20437;-62
2022/02/08 02:26:31;;;;;;;2.13;1.25;;;9.50;82.60;;;;;;4994504;28;20050;-62
2022/02/08 02:28:59;;;;;;;3.83;1.50;;;9.50;82.90;;;;;;4995752;28;20485;-62
2022/02/08 02:31:27;;;;;;;4.40;1.42;;;9.50;83.80;;;;;;4994663;28;20050;-62
2022/02/08 02:33:55;;;;;;;4.65;1.80;;;9.50;85.10;;;;;;4978391;28;20402;-60
2022/02/08 02:36:22;;;;;;;3.80;1.50;;;9.50;85.80;;;;;;4994578;28;20038;-62
2022/02/08 02:38:53;;;;;;;3.25;1.33;;;9.50;85.70;;;;;;4994371;28;20042;-62
2022/02/08 02:41:21;;;;;;;9.13;2.30;;;9.40;85.40;;;;;;4978334;28;20041;-62
2022/02/08 02:43:50;;;;;;;3.10;1.20;;;9.50;85.60;;;;;;4995395;28;20050;-62
2022/02/08 02:46:18;;;;;;;6.13;1.52;;;9.50;85.70;;;;;;4995324;28;20052;-62
2022/02/08 02:48:46;;;;;;;3.97;1.65;;;9.60;85.50;;;;;;4995292;28;20081;-62
2022/02/08 02:51:14;;;;;;;7.00;2.60;;;9.60;84.70;;;;;;4978119;28;20045;-62
2022/02/08 02:53:47;;;;;;;7.22;2.22;;;9.50;84.50;;;;;;4994042;28;20042;-62
2022/02/08 02:56:18;;;;;;;4.95;2.95;;;9.50;84.50;;;;;;4994010;28;20133;-62
2022/02/08 02:58:46;;;;;;;6.30;1.75;;;9.50;83.90;;;;;;4978125;28;20485;-62
2022/02/08 03:19:59;;;;;;;6.85;1.75;;;9.50;85.70;;;;;;4994116;28;20046;-62
2022/02/08 03:22:29;;;;;;;20.48;1.92;;;9.50;86.00;;;;;;4977747;28;20121;-62
2022/02/08 03:24:57;;;;;;;2.10;1.20;;;9.50;85.60;;;;;;4993556;28;20044;-62
2022/02/08 03:27:26;;;;;;;3.55;1.73;;;9.50;84.00;;;;;;4993708;28;20050;-62
2022/02/08 03:29:54;;;;;;;4.90;1.92;;;9.40;82.90;;;;;;4993656;28;20045;-62
2022/02/08 03:32:24;;;;;;;3.17;1.35;;;9.50;83.40;;;;;;4993490;28;20042;-61
2022/02/08 03:34:52;;;;;;;5.70;2.15;;;9.40;83.10;;;;;;4993258;28;20126;-62
2022/02/08 03:37:20;;;;;;;5.55;2.13;;;9.50;83.20;;;;;;4993564;28;20042;-62
2022/02/08 03:39:58;;;;;;;3.67;1.67;;;9.50;82.30;;;;;;4976866;28;20396;-62
2022/02/08 03:42:35;;;;;;;6.85;1.70;;;9.50;81.90;;;;;;4993217;28;20400;-62
2022/02/08 03:45:10;;;;;;;5.13;1.73;;;9.50;82.00;;;;;;4993311;28;20042;-62
2022/02/08 03:47:38;;;;;;;2.13;1.40;;;9.50;82.30;;;;;;4993482;28;20555;-62
2022/02/08 03:50:07;;;;;;;3.85;1.73;;;9.50;82.30;;;;;;4993317;28;20045;-62
2022/02/08 03:52:35;;;;;;;3.65;1.15;;;9.50;82.00;;;;;;4993227;28;20045;-62
2022/02/08 03:55:04;;;;;;;5.75;2.25;;;9.50;81.30;;;;;;4993065;28;20049;-62
2022/02/08 03:57:34;;;;;;;2.20;1.40;;;9.60;81.30;;;;;;4993145;28;20101;-62
2022/02/08 04:00:06;;;;;;;5.32;1.23;;;9.60;81.80;;;;;;4993470;28;20046;-62
2022/02/08 04:02:55;;;;;;;3.17;1.33;;;9.60;82.50;;;;;;4994282;28;20371;-62
2022/02/08 04:05:34;;;;;;;5.20;2.55;;;9.50;81.80;;;;;;4993095;28;20035;-62
2022/02/08 04:08:06;;;;;;;3.25;1.10;;;9.50;81.40;;;;;;4994217;28;20101;-62
2022/02/08 04:10:33;;;;;;;7.65;1.65;;;9.50;82.00;;;;;;4992936;28;20429;-62
2022/02/08 04:32:14;;;;;;;4.77;1.20;;;9.40;83.10;;;;;;4996760;28;20043;-62
2022/02/08 04:48:14;;;;;;;3.92;1.25;;;9.50;81.50;;;;;;4986139;28;20051;-62
2022/02/08 04:50:43;;;;;;;6.10;1.52;;;9.50;82.30;;;;;;4996702;28;20051;-61
2022/02/08 04:53:18;;;;;;;3.78;1.70;;;9.40;82.50;;;;;;4997528;28;20042;-62
2022/02/08 04:55:55;;;;;;;2.42;1.60;;;9.40;82.30;;;;;;4997862;28;20066;-62
2022/02/08 04:58:36;;;;;;;5.63;1.65;;;9.40;80.50;;;;;;4996033;28;20401;-62
2022/02/08 05:01:15;;;;;;;2.13;1.20;;;9.30;79.90;;;;;;4980237;28;20433;-62
2022/02/08 05:42:27;;;;;;;3.30;1.63;;;9.40;80.50;;;;;;4995921;28;20042;-62
2022/02/08 05:47:48;;;;;;;1.27;1.08;;;9.40;80.90;;;;;;4993938;28;20497;-62
2022/02/08 05:53:14;;;;;;;3.58;1.23;;;9.40;81.50;;;;;;4996415;28;20501;-62
2022/02/08 05:55:41;;;;;;;4.30;1.23;;;9.40;81.40;;;;;;4996411;28;20046;-62
2022/02/08 05:58:09;;;;;;;2.13;1.13;;;9.40;81.20;;;;;;4996189;28;20149;-62
2022/02/08 06:00:39;;;;;;;4.40;1.75;;;9.50;80.60;;;;;;4996240;28;20417;-62
2022/02/08 06:03:19;;;;;;;2.92;1.52;;;9.50;79.90;;;;;;4979404;28;20444;-62
2022/02/08 06:05:55;;;;;;;3.35;2.17;;;9.50;79.00;;;;;;4995208;28;20064;-62
2022/02/08 06:08:22;;;;;;;9.20;2.10;;;9.50;78.80;;;;;;4995212;28;20093;-62
2022/02/08 06:10:54;;;;;;;4.10;1.80;;;9.50;79.10;;;;;;4996150;28;20050;-62
2022/02/08 06:13:22;;;;;;;5.03;1.90;;;9.40;79.30;;;;;;4996109;28;20050;-60
2022/02/08 06:15:59;;;;;;;6.25;2.05;;;9.50;79.70;;;;;;4994925;28;20382;-62
2022/02/08 06:18:31;;;;;;;6.80;2.70;;;9.40;80.40;;;;;;4996436;28;20042;-62
2022/02/08 06:20:59;;;;;;;6.75;2.35;;;9.40;80.10;;;;;;4996167;28;20490;-62
2022/02/08 06:23:27;;;;;;;6.85;2.25;;;9.50;79.80;;;;;;4996109;28;20076;-60
2022/02/08 06:25:55;;;;;;;7.00;3.05;;;9.50;79.40;;;;;;4994695;28;20050;-60
2022/02/08 06:28:23;;;;;;;8.52;3.35;;;9.50;80.20;;;;;;4994889;28;20512;-60
2022/02/08 06:30:51;;;;;;;5.15;2.20;;;9.50;79.40;;;;;;4994584;28;20445;-60
2022/02/08 06:33:20;;;;;;;5.47;1.85;;;9.60;79.40;;;;;;4996008;28;20043;-60
2022/02/08 06:35:48;;;;;;;4.22;2.13;;;9.70;79.50;;;;;;4995577;28;20038;-60
2022/02/08 06:38:18;;;;;;;4.88;1.77;;;9.60;79.30;;;;;;4995772;28;20042;-60
2022/02/08 06:40:49;;;;;;;9.40;2.17;;;9.70;79.20;;;;;;4994211;28;20064;-60
2022/02/08 06:43:18;;;;;;;6.10;1.90;;;9.70;79.90;;;;;;4996020;28;20038;-60
2022/02/08 06:45:45;;;;;;;4.97;2.33;;;9.90;79.40;;;;;;4995611;28;20477;-61
2022/02/08 06:48:13;;;;;;;5.35;1.90;;;10.00;79.00;;;;;;4995533;28;20046;-61
2022/02/08 06:50:40;;;;;;;5.35;1.60;;;10.00;79.00;;;;;;4994328;28;20054;-60
2022/02/08 06:53:10;;;;;;;3.10;1.42;;;10.00;79.00;;;;;;4978287;28;20382;-60
2022/02/08 06:55:38;;;;;;;3.53;1.88;;;10.00;79.00;;;;;;4995469;28;20109;-60
2022/02/08 06:58:06;;;;;;;3.47;2.42;;;10.40;78.30;;;;;;4977953;28;20089;-60
2022/02/08 07:00:38;;;;;;;3.97;1.63;;;11.20;76.70;;;;;;4995450;28;20050;-60
2022/02/08 07:03:11;;;;;;;6.93;2.35;;;12.30;74.30;;;;;;4994016;28;20046;-61
2022/02/08 07:05:39;;;;;;;3.88;1.52;;;13.40;72.30;;;;;;4994206;28;20420;-61
2022/02/08 07:08:08;;;;;;;3.05;1.95;;;14.00;70.70;;;;;;4994904;28;20145;-61
2022/02/08 07:10:36;;;;;;;7.72;2.88;;;14.30;70.20;;;;;;4994809;28;20129;-61
2022/02/08 07:13:07;;;;;;;3.63;1.70;;;13.70;69.80;;;;;;4993987;28;20489;-61
2022/02/08 07:15:35;;;;;;;6.18;2.15;;;12.90;70.70;;;;;;4993656;28;20081;-61
2022/02/08 07:18:03;;;;;;;4.90;2.47;;;12.60;71.00;;;;;;4994876;28;20054;-61
2022/02/08 07:20:34;;;;;;;4.18;1.45;;;12.60;70.90;;;;;;4994785;28;20484;-61
2022/02/08 07:23:02;;;;;;;2.33;1.33;;;12.70;70.30;;;;;;4995139;28;20078;-61
2022/02/08 07:25:33;;;;;;;3.80;1.45;;;12.90;70.10;;;;;;4977548;28;20058;-61
2022/02/08 07:28:00;;;;;;;9.48;2.10;;;13.10;70.20;;;;;;4977551;28;20130;-61
2022/02/08 07:30:30;;;;;;;5.45;1.70;;;13.30;70.20;;;;;;4993587;28;20038;-61
2022/02/08 07:32:57;;;;;;;2.55;2.00;;;13.70;70.70;;;;;;4994876;28;20038;-61
2022/02/08 07:35:48;;;;;;;4.90;2.10;;;14.10;70.50;;;;;;4994617;28;20555;-61
2022/02/08 07:38:22;;;;;;;7.55;3.63;;;14.10;69.10;;;;;;4994620;28;20556;-62
2022/02/08 07:43:20;;;;;;;6.13;2.70;;;14.50;66.60;;;;;;4993382;28;20046;-62
2022/02/08 07:46:06;;;;;;;4.45;1.98;;;14.80;65.70;;;;;;4994713;28;20118;-61
2022/02/08 07:48:34;;;;;;;6.30;2.13;;;14.90;65.80;;;;;;4993479;28;20045;-61
2022/02/08 07:51:01;;;;;;;9.60;3.08;;;15.10;65.50;;;;;;4994419;28;20104;-61
2022/02/08 07:53:30;;;;;;;2.35;1.67;;;15.20;65.20;;;;;;4994257;28;20421;-61
2022/02/08 07:55:58;;;;;;;4.07;1.48;;;15.40;65.70;;;;;;4993214;28;20042;-62
2022/02/08 07:58:27;;;;;;;4.45;1.50;;;15.50;65.20;;;;;;4994138;28;20058;-62
2022/02/08 08:00:54;;;;;;;3.20;1.52;;;15.40;63.70;;;;;;4994342;28;20468;-61
2022/02/08 08:03:22;;;;;;;4.55;1.92;;;15.10;65.10;;;;;;4994551;28;20463;-61
2022/02/08 08:05:49;;;;;;;6.03;1.95;;;14.80;66.40;;;;;;4994055;28;20101;-60
2022/02/08 08:08:17;;;;;;;4.88;1.95;;;14.60;65.90;;;;;;4994186;28;20367;-61
2022/02/08 08:10:46;;;;;;;4.15;1.80;;;14.10;66.40;;;;;;4994085;28;20042;-61
2022/02/08 08:13:17;;;;;;;4.53;1.55;;;14.20;67.80;;;;;;4976712;28;20528;-61
2022/02/08 08:15:53;;;;;;;4.50;1.92;;;14.10;68.30;;;;;;4993043;28;20137;-61
2022/02/08 08:21:00;;;;;;;4.82;2.60;;;14.20;67.80;;;;;;4994343;28;20129;-61
2022/02/08 08:23:28;;;;;;;6.82;1.67;;;14.20;67.00;;;;;;4992933;28;20116;-61
2022/02/08 08:25:55;;;;;;;3.83;1.65;;;13.90;66.90;;;;;;4992872;28;20038;-61
2022/02/08 08:28:23;;;;;;;2.67;1.55;;;13.50;68.20;;;;;;4994061;28;20070;-61
2022/02/08 08:30:50;;;;;;;2.80;1.65;;;13.20;68.90;;;;;;4992897;28;20070;-61
2022/02/08 08:33:18;;;;;;;6.45;1.92;;;12.90;69.50;;;;;;4992818;28;20115;-61
2022/02/08 08:35:59;;;;;;;8.27;1.52;;;12.60;69.90;;;;;;4994087;28;20069;-61
2022/02/08 08:38:30;;;;;;;5.35;2.53;;;12.30;70.60;;;;;;4994089;28;20080;-61
2022/02/08 08:51:39;;;;;;;4.63;2.20;;;11.70;72.30;;;;;;4993913;28;20050;-61
2022/02/08 08:54:08;;;;;;;3.97;2.20;;;11.70;72.30;;;;;;4992873;28;20050;-61
2022/02/08 08:56:40;;;;;;;5.63;1.52;;;11.60;72.40;;;;;;4993846;28;20054;-61
2022/02/08 08:59:10;;;;;;;8.32;2.13;;;11.50;73.10;;;;;;4993836;28;20094;-61
2022/02/08 09:01:38;;;;;;;4.57;1.40;;;11.50;73.20;;;;;;4992625;28;20053;-61
2022/02/08 09:04:06;;;;;;;2.38;1.38;;;11.40;74.30;;;;;;4993813;28;20070;-61
2022/02/08 09:06:36;;;;;;;5.55;1.15;;;11.30;74.80;;;;;;4993835;28;20066;-61
2022/02/08 09:09:11;;;;;;;5.13;1.63;;;11.50;73.80;;;;;;4993725;28;20042;-61
2022/02/08 09:14:13;;;;;;;4.13;1.42;;;12.10;74.00;;;;;;4985471;28;20039;-62
2022/02/08 09:16:49;;;;;;;4.00;1.27;;;12.30;72.70;;;;;;4999471;28;20089;-60
2022/02/08 09:24:49;;;;;;;2.72;1.58;;;12.60;71.90;;;;;;4998240;28;20035;-62
2022/02/08 09:30:11;;;;;;;6.93;1.97;;;12.90;71.90;;;;;;4992713;28;20046;-61
2022/02/08 09:35:08;;;;;;;6.40;1.90;;;12.90;73.60;;;;;;5006692;28;20054;-62
2022/02/08 09:37:37;;;;;;;3.78;1.50;;;13.00;72.70;;;;;;4989877;28;20054;-62
2022/02/08 09:40:07;;;;;;;4.35;1.85;;;13.20;71.70;;;;;;4993385;28;20501;-63
2022/02/08 09:42:38;;;;;;;3.38;1.85;;;13.30;71.20;;;;;;4998455;28;20049;-64
2022/02/08 09:45:13;;;;;;;8.32;2.35;;;13.50;71.30;;;;;;4996634;28;20042;-64
2022/02/08 09:47:54;;;;;;;5.25;1.58;;;13.40;72.00;;;;;;4999053;28;20052;-64
2022/02/08 09:50:26;;;;;;;10.45;2.38;;;13.50;71.90;;;;;;4999182;28;20042;-63
2022/02/08 09:53:00;;;;;;;3.53;2.17;;;13.30;70.90;;;;;;5006946;28;20130;-67
2022/02/08 09:55:36;;;;;;;6.68;3.60;;;13.00;71.00;;;;;;5005940;28;20470;-61
2022/02/08 09:58:05;;;;;;;8.18;3.85;;;13.00;72.30;;;;;;4986068;28;20089;-61
2022/02/08 10:00:34;;;;;;;16.80;7.50;;;13.00;71.70;;;;;;5002861;28;20582;-62
2022/02/08 10:03:07;;;;;;;6.07;2.95;;;13.20;75.80;;;;;;5001265;28;20046;-61
2022/02/08 10:05:56;;;;;;;3.42;1.88;;;13.10;70.30;;;;;;4987616;28;20042;-62
2022/02/08 10:08:23;;;;;;;5.72;2.40;;;12.90;69.50;;;;;;4991696;28;20436;-61
2022/02/08 10:10:51;;;;;;;5.85;1.90;;;12.80;70.00;;;;;;4998737;28;20048;-61
2022/02/08 10:21:44;;;;;;;4.57;2.47;;;13.10;71.70;;;;;;4991790;28;20129;-62
2022/02/08 10:24:16;;;;;;;5.10;2.97;;;12.90;70.70;;;;;;4987809;28;20035;-61
2022/02/08 10:29:39;;;;;;;3.85;2.30;;;13.10;70.50;;;;;;4957871;28;107324;-60
2022/02/08 10:37:49;;;;;;;4.43;2.00;;;13.40;68.10;;;;;;4970878;28;20605;-61
2022/02/08 10:40:20;;;;;;;7.05;1.92;;;13.50;68.50;;;;;;4970124;28;20042;-61
2022/02/08 10:42:56;;;;;;;7.88;2.15;;;13.20;68.80;;;;;;4973954;28;20047;-61
2022/02/08 10:45:29;;;;;;;4.25;1.95;;;13.20;69.20;;;;;;4971788;28;20037;-62
2022/02/08 10:48:03;;;;;;;6.95;2.35;;;13.30;70.30;;;;;;4974326;28;20081;-61
2022/02/08 10:50:34;;;;;;;4.65;2.78;;;13.20;70.60;;;;;;4972782;28;20502;-61
2022/02/08 10:53:04;;;;;;;5.05;2.58;;;13.00;70.90;;;;;;4965705;28;20043;-61
2022/02/08 10:55:53;;;;;;;2.65;1.73;;;12.90;72.40;;;;;;4988112;28;20081;-61
2022/02/08 11:01:09;;;;;;;4.70;2.38;;;12.90;71.60;;;;;;4971492;28;20035;-61
2022/02/08 11:03:53;;;;;;;4.43;2.17;;;12.80;71.00;;;;;;4970420;28;20049;-61
2022/02/08 11:06:28;;;;;;;8.45;5.10;;;13.00;71.70;;;;;;4974395;28;20035;-61
2022/02/08 11:09:18;;;;;;;6.15;3.85;;;13.10;71.70;;;;;;4957153;28;20050;-61
2022/02/08 11:12:28;;;;;;;6.72;4.90;;;13.30;70.70;;;;;;4971486;28;20412;-61
2022/02/08 11:20:20;;;;;;;4.57;2.03;;;13.20;70.30;;;;;;4970016;28;20051;-61
2022/02/08 11:23:48;;;;;;;5.40;2.40;;;13.10;69.50;;;;;;4967107;28;20046;-61
2022/02/08 11:26:46;;;;;;;5.00;2.42;;;13.20;68.90;;;;;;4968581;28;20039;-60
2022/02/08 11:32:07;;;;;;;;;;;13.20;68.40;;;;;;4971046;28;20074;-62
2022/02/08 11:46:12;;;;;;;4.85;2.10;;;13.30;69.10;;;;;;4964885;28;20043;-62
2022/02/08 11:49:04;;;;;;;7.22;2.45;;;13.20;69.20;;;;;;4969077;28;20043;-62
2022/02/08 11:54:24;;;;;;;5.32;2.13;;;13.00;68.60;;;;;;4966630;28;20117;-62
2022/02/08 12:07:56;;;;;;;7.45;1.98;;;12.90;70.00;;;;;;4972017;28;20093;-62
2022/02/08 12:10:38;;;;;;;5.25;1.90;;;12.80;70.30;;;;;;4961326;28;20042;-62
2022/02/08 12:53:18;;;;;;;7.63;2.95;;;12.80;67.10;;;;;;4964967;28;20054;-61
2022/02/08 12:55:43;;;;;;;6.10;3.58;;;12.70;67.10;;;;;;4966565;28;20050;-62
2022/02/08 12:58:29;;;;;;;8.40;3.13;;;12.70;68.20;;;;;;4958971;28;20047;-61
2022/02/08 13:01:25;;;;;;;6.40;2.25;;;12.70;68.80;;;;;;4957938;28;20406;-61
2022/02/08 14:01:43;;;;;;;7.50;2.53;;;12.20;69.40;;;;;;4977495;28;20054;-61
2022/02/08 14:24:00;;;;;;;5.18;2.00;;;11.60;70.80;;;;;;4956205;29;20483;-61
2022/02/08 14:34:46;;;;;;;4.85;2.97;;;11.60;72.00;;;;;;4940324;29;20051;-61
2022/02/08 14:48:45;;;;;;;4.70;2.42;;;11.60;71.60;;;;;;4957291;29;20090;-61
2022/02/08 15:08:02;;;;;;;4.07;2.35;;;11.50;71.10;;;;;;4970413;28;20051;-61
2022/02/08 15:10:38;;;;;;;8.27;2.88;;;11.40;71.00;;;;;;4970934;28;20506;-61
2022/02/08 15:13:08;;;;;;;9.85;4.13;;;11.30;70.80;;;;;;4967017;28;20130;-61
2022/02/08 15:18:18;;;;;;;5.47;2.60;;;11.20;71.80;;;;;;4960617;28;20043;-61
2022/02/08 15:20:45;;;;;;;5.32;3.00;;;11.10;71.70;;;;;;4956422;28;20066;-61
2022/02/08 15:23:28;;;;;;;9.00;4.13;;;11.10;72.10;;;;;;4941659;29;20058;-61
2022/02/08 15:25:58;;;;;;;12.00;5.72;;;11.20;72.30;;;;;;4967096;28;20057;-62
2022/02/08 15:28:27;;;;;;;9.38;4.68;;;11.20;72.90;;;;;;4958577;28;20039;-62
2022/02/08 15:30:56;;;;;;;6.85;3.88;;;11.10;72.40;;;;;;4961505;28;20137;-62
2022/02/08 15:33:25;;;;;;;4.45;2.72;;;11.20;71.80;;;;;;4965577;28;20130;-61
2022/02/08 15:35:53;;;;;;;6.95;2.70;;;11.10;70.90;;;;;;4956798;28;20074;-61
2022/02/08 15:38:27;;;;;;;6.13;2.60;;;11.10;71.50;;;;;;4972907;28;20050;-61
2022/02/08 15:40:56;;;;;;;4.47;1.75;;;11.10;72.00;;;;;;4975218;28;20042;-61
2022/02/08 15:43:25;;;;;;;9.73;2.60;;;11.00;72.30;;;;;;4966669;28;20054;-62
2022/02/08 15:46:01;;;;;;;3.70;2.63;;;11.10;72.60;;;;;;4956198;28;20071;-61
2022/02/08 15:48:30;;;;;;;8.68;3.28;;;11.00;72.60;;;;;;4963368;28;20502;-61
2022/02/08 15:51:17;;;;;;;4.93;2.95;;;11.00;72.10;;;;;;4965451;28;20043;-62
2022/02/08 16:07:19;;;;;;;9.65;4.65;;;10.70;71.90;;;;;;4955729;28;20047;-62
2022/02/08 16:10:02;;;;;;;6.80;2.95;;;10.60;70.70;;;;;;4963040;28;20043;-62
2022/02/08 16:33:45;;;;;;;6.13;3.25;;;10.60;73.40;;;;;;4983122;28;20162;-61
2022/02/08 16:53:08;;;;;;;7.88;3.42;;;10.20;73.80;;;;;;4963062;28;20379;-62
2022/02/08 17:00:43;;;;;;;6.75;3.35;;;10.20;75.60;;;;;;4966423;28;20524;-61
2022/02/08 17:03:13;;;;;;;5.80;3.40;;;10.30;75.10;;;;;;4967514;28;20047;-61
2022/02/08 17:05:41;;;;;;;6.97;2.63;;;10.30;75.20;;;;;;4941916;29;20062;-61
2022/02/08 17:08:11;;;;;;;4.15;2.20;;;10.30;75.20;;;;;;4958810;28;20090;-61
2022/02/08 17:10:40;;;;;;;5.07;2.47;;;10.30;75.70;;;;;;4959462;28;20603;-61
2022/02/08 17:13:19;;;;;;;6.50;3.78;;;10.30;75.50;;;;;;4966468;28;20450;-62
2022/02/08 17:47:45;;;;;;;6.63;3.25;;;10.40;77.10;;;;;;4964471;28;20049;-61
2022/02/08 17:50:15;;;;;;;6.32;3.15;;;10.40;77.50;;;;;;4969741;28;20043;-61
2022/02/08 17:52:44;;;;;;;3.40;2.45;;;10.40;77.60;;;;;;4959261;28;20054;-63
2022/02/08 17:55:14;;;;;;;9.85;3.38;;;10.40;77.50;;;;;;4971628;28;20620;-62
2022/02/08 17:57:42;;;;;;;5.53;2.63;;;10.40;76.90;;;;;;4970769;28;20050;-62
2022/02/08 18:00:12;;;;;;;5.38;3.03;;;10.40;76.10;;;;;;4972287;28;20055;-62
2022/02/08 18:02:42;;;;;;;7.18;2.50;;;10.30;75.70;;;;;;4968905;28;20057;-63
2022/02/08 18:05:14;;;;;;;4.40;1.92;;;10.30;76.00;;;;;;4975098;28;20502;-63
2022/02/08 18:07:43;;;;;;;5.03;2.90;;;10.40;76.00;;;;;;4974614;28;20066;-61
2022/02/08 18:10:13;;;;;;;6.57;2.55;;;10.30;76.50;;;;;;4967502;28;20556;-62
2022/02/08 18:12:44;;;;;;;6.07;2.70;;;10.40;76.30;;;;;;4973468;28;20055;-62
2022/02/08 18:15:13;;;;;;;5.30;3.20;;;10.40;76.70;;;;;;4973969;28;20047;-62
2022/02/08 18:17:49;;;;;;;4.65;3.25;;;10.50;76.80;;;;;;4974612;28;20415;-62
2022/02/08 19:11:50;;;;;;;5.63;2.83;;;10.30;78.70;;;;;;4971893;28;20042;-61
2022/02/08 19:20:00;;;;;;;5.07;2.85;;;10.20;76.60;;;;;;4968107;28;20042;-61
2022/02/08 19:22:27;;;;;;;10.38;3.42;;;10.20;76.80;;;;;;4962632;28;20126;-61
2022/02/08 19:24:55;;;;;;;5.10;3.15;;;10.20;76.60;;;;;;4964779;28;20050;-62
2022/02/08 19:27:23;;;;;;;7.50;2.67;;;10.10;76.60;;;;;;4964664;28;20182;-62
2022/02/08 19:29:51;;;;;;;4.65;2.88;;;10.10;77.00;;;;;;4965573;28;20141;-62
2022/02/08 19:32:18;;;;;;;4.05;2.78;;;10.20;77.20;;;;;;4962581;28;20047;-61
2022/02/08 19:34:47;;;;;;;3.78;2.58;;;10.20;77.00;;;;;;4965491;28;20070;-61
2022/02/08 19:37:18;;;;;;;5.30;3.25;;;10.20;76.90;;;;;;4965228;28;20039;-62
2022/02/08 19:39:48;;;;;;;8.00;3.63;;;10.20;76.40;;;;;;4962879;28;20042;-61
2022/02/08 19:42:16;;;;;;;3.58;2.25;;;10.10;76.50;;;;;;4959246;28;20043;-62
2022/02/08 19:44:53;;;;;;;6.82;3.30;;;10.20;76.80;;;;;;4968150;28;20410;-61
2022/02/08 19:47:22;;;;;;;5.47;2.10;;;10.20;77.00;;;;;;4973045;28;20113;-61
2022/02/08 19:49:51;;;;;;;4.13;2.75;;;10.20;77.80;;;;;;4969095;28;20046;-61
2022/02/08 19:52:21;;;;;;;5.45;2.33;;;10.20;77.90;;;;;;4970200;28;20093;-61
2022/02/08 19:57:34;;;;;;;6.05;3.03;;;10.30;78.60;;;;;;4968192;28;20086;-61
2022/02/08 20:00:08;;;;;;;7.78;3.70;;;10.30;78.80;;;;;;4987589;28;20053;-61
2022/02/08 20:02:43;;;;;;;3.28;2.55;;;10.30;78.90;;;;;;4972072;28;20043;-61
2022/02/08 20:05:14;;;;;;;3.75;2.75;;;10.30;79.10;;;;;;4969747;28;20490;-61
2022/02/08 20:07:41;;;;;;;7.32;2.70;;;10.30;79.30;;;;;;4965289;28;20073;-61
2022/02/08 20:10:10;;;;;;;5.00;2.13;;;10.30;79.30;;;;;;4971604;28;20051;-61
2022/02/08 20:12:38;;;;;;;4.25;2.90;;;10.30;79.10;;;;;;4938680;28;20058;-61
2022/02/08 20:15:08;;;;;;;5.90;2.67;;;10.30;79.10;;;;;;4972323;28;20043;-61
2022/02/08 20:17:36;;;;;;;8.00;2.78;;;10.30;79.00;;;;;;4972152;28;20054;-61
2022/02/08 20:20:13;;;;;;;6.53;3.60;;;10.30;79.30;;;;;;4968524;28;20405;-62
2022/02/08 20:22:47;;;;;;;7.22;3.25;;;10.30;79.30;;;;;;4966182;28;20047;-61
2022/02/08 20:25:18;;;;;;;5.75;3.65;;;10.40;79.60;;;;;;4972187;28;20090;-61
2022/02/08 20:27:48;;;;;;;4.05;2.25;;;10.40;80.00;;;;;;4972127;28;20046;-61
2022/02/08 20:30:22;;;;;;;6.32;2.58;;;10.40;80.40;;;;;;4963150;28;20038;-61
2022/02/08 20:32:52;;;;;;;6.15;2.20;;;10.40;80.70;;;;;;4964965;28;20446;-61
2022/02/08 20:35:21;;;;;;;4.95;2.40;;;10.40;80.90;;;;;;4972890;28;20053;-61
2022/02/08 20:37:49;;;;;;;4.35;2.00;;;10.30;80.80;;;;;;4970315;28;20047;-61
2022/02/08 20:40:20;;;;;;;5.00;2.20;;;10.30;81.20;;;;;;4973114;28;20051;-61
2022/02/08 20:42:55;;;;;;;6.53;3.15;;;10.30;80.80;;;;;;4967688;28;20065;-61
2022/02/08 20:45:23;;;;;;;5.35;2.22;;;10.40;80.90;;;;;;4971307;28;20494;-60
2022/02/08 20:47:51;;;;;;;3.08;2.28;;;10.40;81.00;;;;;;4964403;28;20050;-61
2022/02/08 20:50:24;;;;;;;5.38;3.63;;;10.40;80.80;;;;;;4953207;29;20063;-61
2022/02/08 20:53:05;;;;;;;4.05;2.35;;;10.30;80.30;;;;;;4968757;28;20164;-61
2022/02/08 20:55:43;;;;;;;5.70;1.77;;;10.30;79.90;;;;;;4969560;28;20043;-61
2022/02/08 20:58:16;;;;;;;3.70;2.13;;;10.20;78.60;;;;;;4960782;28;20050;-61
2022/02/08 21:00:49;;;;;;;4.45;2.47;;;10.20;78.70;;;;;;4973147;28;20576;-61
2022/02/08 21:06:00;;;;;;;3.67;1.55;;;10.20;79.00;;;;;;4971553;28;20131;-61
2022/02/08 21:08:30;;;;;;;4.90;2.10;;;10.20;79.20;;;;;;4971040;28;20069;-61
2022/02/08 21:10:59;;;;;;;4.63;1.70;;;10.20;78.90;;;;;;4967149;28;20114;-61
2022/02/08 21:16:16;;;;;;;5.95;1.88;;;10.20;79.10;;;;;;4964142;28;20178;-61
2022/02/08 21:18:44;;;;;;;4.95;1.80;;;10.20;79.20;;;;;;4963303;28;20138;-61
2022/02/08 21:21:11;;;;;;;4.97;1.88;;;10.30;79.40;;;;;;4965402;28;20039;-61
2022/02/08 21:23:42;;;;;;;2.55;1.60;;;10.20;79.60;;;;;;4963646;28;20074;-62
2022/02/08 21:26:15;;;;;;;5.43;1.77;;;10.20;79.80;;;;;;4965811;28;20525;-61
2022/02/08 21:49:49;;;;;;;;;;;10.10;81.60;;;;;;4967025;28;20047;-61
2022/02/08 21:54:47;;;;;;;6.63;3.45;;;10.10;81.00;;;;;;4972810;28;20042;-61
2022/02/08 21:57:18;;;;;;;4.90;2.50;;;10.20;81.00;;;;;;4975415;28;20038;-60
2022/02/08 21:59:46;;;;;;;4.95;1.95;;;10.20;80.90;;;;;;4972874;28;20592;-61